Terminal Aerodrome Forecast
Issued by NWS

Home | Current Version | Previous Version | Text Only | Print | Product List | Glossary Off
Versions: 1 2 3 4 5 6 7 8 9 10 11 12 13 14 15

000
FTUS43 KGRB 181730
TAFAUW
TAF
KAUW 181730Z 1818/1918 14005KT P6SM BKN019 OVC050
     FM181900 13005KT P6SM SCT020 BKN070
     FM182200 11005KT P6SM -SHRA OVC080
     FM190500 11004KT P6SM BKN070
     FM191200 11005KT P6SM SCT070=

USA.gov is the U.S. government's official web portal to all federal, state and local government web resources and services.